Archer, Wyoming
Current Conditions -  °F | °C
As of 6:53 AM on Monday 22 Dec 2014 (Local Time) from KCYS Reporting Station
Clear Clear  
Wind Chill: 15°   Ceiling: Unl
Heat Index: 25°   Visibility: 10mi
Dew Point: 16°   Wind: 10mph
Humidity: 69%   Direction: 330°NNW
Pressure: 29.71"   Gusts: NA
Location:  41.4091°N, 104.861°W
Report Text: KCYS 221353Z 33009KT 10SM CLR M04/M09 A2971 RMK AO2 SLP074 T10391089
Loading
Personal Weather Stations






























Interactive Weather Map New forecast layout! Learn more

10-Day Weather Forecast

Advertisements
Track Severe Weather on mobile